sensor_id;sensor_type;location;lat;lon;timestamp;P1;durP1;ratioP1;P2;durP2;ratioP2
77513;SDS011;66626;48.872;9.084;2023-08-06T00:00:19;5.93;;;3.38;;
77513;SDS011;66626;48.872;9.084;2023-08-06T00:02:45;6.03;;;2.95;;
77513;SDS011;66626;48.872;9.084;2023-08-06T00:05:10;7.75;;;2.90;;
77513;SDS011;66626;48.872;9.084;2023-08-06T00:07:35;9.48;;;3.03;;
77513;SDS011;66626;48.872;9.084;2023-08-06T00:10:01;5.85;;;2.90;;
77513;SDS011;66626;48.872;9.084;2023-08-06T00:12:26;6.03;;;2.55;;
77513;SDS011;66626;48.872;9.084;2023-08-06T00:14:52;6.18;;;2.60;;
77513;SDS011;66626;48.872;9.084;2023-08-06T00:17:18;6.75;;;2.45;;
77513;SDS011;66626;48.872;9.084;2023-08-06T00:19:43;5.18;;;2.72;;
77513;SDS011;66626;48.872;9.084;2023-08-06T00:22:08;5.85;;;3.03;;
77513;SDS011;66626;48.872;9.084;2023-08-06T00:24:34;4.57;;;2.53;;
77513;SDS011;66626;48.872;9.084;2023-08-06T00:27:00;5.18;;;2.83;;
77513;SDS011;66626;48.872;9.084;2023-08-06T00:29:25;4.90;;;2.42;;
77513;SDS011;66626;48.872;9.084;2023-08-06T00:31:50;6.57;;;2.90;;
77513;SDS011;66626;48.872;9.084;2023-08-06T00:34:15;6.65;;;3.05;;
77513;SDS011;66626;48.872;9.084;2023-08-06T00:36:41;5.88;;;3.20;;
77513;SDS011;66626;48.872;9.084;2023-08-06T00:39:06;5.40;;;2.88;;
77513;SDS011;66626;48.872;9.084;2023-08-06T00:41:32;5.82;;;3.08;;
77513;SDS011;66626;48.872;9.084;2023-08-06T00:43:57;5.88;;;2.80;;
77513;SDS011;66626;48.872;9.084;2023-08-06T00:46:23;6.15;;;3.08;;
77513;SDS011;66626;48.872;9.084;2023-08-06T00:48:48;8.48;;;2.75;;
77513;SDS011;66626;48.872;9.084;2023-08-06T00:51:14;8.60;;;3.67;;
77513;SDS011;66626;48.872;9.084;2023-08-06T00:53:40;6.72;;;3.33;;
77513;SDS011;66626;48.872;9.084;2023-08-06T00:56:06;6.25;;;3.00;;
77513;SDS011;66626;48.872;9.084;2023-08-06T00:58:32;6.72;;;2.97;;
77513;SDS011;66626;48.872;9.084;2023-08-06T01:00:58;7.53;;;2.78;;
77513;SDS011;66626;48.872;9.084;2023-08-06T01:03:24;5.38;;;2.95;;
77513;SDS011;66626;48.872;9.084;2023-08-06T01:05:50;4.25;;;2.72;;
77513;SDS011;66626;48.872;9.084;2023-08-06T01:13:43;7.88;;;3.13;;
77513;SDS011;66626;48.872;9.084;2023-08-06T01:16:12;6.78;;;3.05;;
77513;SDS011;66626;48.872;9.084;2023-08-06T01:18:40;5.53;;;2.58;;
77513;SDS011;66626;48.872;9.084;2023-08-06T01:21:06;8.38;;;3.65;;
77513;SDS011;66626;48.872;9.084;2023-08-06T01:23:32;4.95;;;2.72;;
77513;SDS011;66626;48.872;9.084;2023-08-06T01:26:05;6.55;;;2.63;;
77513;SDS011;66626;48.872;9.084;2023-08-06T01:31:10;6.00;;;2.92;;
77513;SDS011;66626;48.872;9.084;2023-08-06T01:33:50;5.30;;;2.47;;
77513;SDS011;66626;48.872;9.084;2023-08-06T01:36:16;5.22;;;2.55;;
77513;SDS011;66626;48.872;9.084;2023-08-06T01:38:42;5.65;;;2.97;;
77513;SDS011;66626;48.872;9.084;2023-08-06T01:41:07;5.90;;;2.60;;
77513;SDS011;66626;48.872;9.084;2023-08-06T01:43:33;7.85;;;2.55;;
77513;SDS011;66626;48.872;9.084;2023-08-06T01:45:58;4.75;;;2.20;;
77513;SDS011;66626;48.872;9.084;2023-08-06T01:48:23;8.57;;;3.28;;
77513;SDS011;66626;48.872;9.084;2023-08-06T01:50:49;4.78;;;2.58;;
77513;SDS011;66626;48.872;9.084;2023-08-06T01:53:14;5.78;;;2.70;;
77513;SDS011;66626;48.872;9.084;2023-08-06T01:55:39;5.90;;;2.60;;
77513;SDS011;66626;48.872;9.084;2023-08-06T01:58:05;6.07;;;2.83;;
77513;SDS011;66626;48.872;9.084;2023-08-06T02:00:30;4.68;;;2.25;;
77513;SDS011;66626;48.872;9.084;2023-08-06T02:02:55;5.57;;;2.50;;
77513;SDS011;66626;48.872;9.084;2023-08-06T02:05:20;5.82;;;2.28;;
77513;SDS011;66626;48.872;9.084;2023-08-06T02:07:46;5.72;;;2.78;;
77513;SDS011;66626;48.872;9.084;2023-08-06T02:10:11;4.93;;;2.40;;
77513;SDS011;66626;48.872;9.084;2023-08-06T02:12:36;7.50;;;2.83;;
77513;SDS011;66626;48.872;9.084;2023-08-06T02:15:02;4.95;;;2.70;;
77513;SDS011;66626;48.872;9.084;2023-08-06T02:17:28;6.55;;;2.75;;
77513;SDS011;66626;48.872;9.084;2023-08-06T02:19:53;4.93;;;2.38;;
77513;SDS011;66626;48.872;9.084;2023-08-06T02:22:18;5.95;;;2.40;;
77513;SDS011;66626;48.872;9.084;2023-08-06T02:24:44;4.10;;;2.00;;
77513;SDS011;66626;48.872;9.084;2023-08-06T02:27:09;5.72;;;2.10;;
77513;SDS011;66626;48.872;9.084;2023-08-06T02:29:34;4.18;;;2.08;;
77513;SDS011;66626;48.872;9.084;2023-08-06T02:31:59;4.30;;;2.38;;
77513;SDS011;66626;48.872;9.084;2023-08-06T02:34:27;5.20;;;2.13;;
77513;SDS011;66626;48.872;9.084;2023-08-06T02:36:52;4.72;;;1.88;;
77513;SDS011;66626;48.872;9.084;2023-08-06T02:39:17;4.82;;;1.70;;
77513;SDS011;66626;48.872;9.084;2023-08-06T02:41:43;5.40;;;2.30;;
77513;SDS011;66626;48.872;9.084;2023-08-06T02:44:09;4.95;;;1.90;;
77513;SDS011;66626;48.872;9.084;2023-08-06T02:46:34;3.60;;;1.88;;
77513;SDS011;66626;48.872;9.084;2023-08-06T02:48:59;4.78;;;1.90;;
77513;SDS011;66626;48.872;9.084;2023-08-06T02:51:25;4.97;;;2.17;;
77513;SDS011;66626;48.872;9.084;2023-08-06T02:53:50;9.27;;;2.10;;
77513;SDS011;66626;48.872;9.084;2023-08-06T02:56:15;8.43;;;2.28;;
77513;SDS011;66626;48.872;9.084;2023-08-06T02:58:41;6.10;;;2.00;;
77513;SDS011;66626;48.872;9.084;2023-08-06T03:01:06;4.03;;;1.73;;
77513;SDS011;66626;48.872;9.084;2023-08-06T03:03:32;5.60;;;2.40;;
77513;SDS011;66626;48.872;9.084;2023-08-06T03:05:58;4.10;;;2.22;;
77513;SDS011;66626;48.872;9.084;2023-08-06T03:08:24;4.78;;;2.17;;
77513;SDS011;66626;48.872;9.084;2023-08-06T03:10:50;4.30;;;1.92;;
77513;SDS011;66626;48.872;9.084;2023-08-06T03:13:18;4.15;;;1.90;;
77513;SDS011;66626;48.872;9.084;2023-08-06T03:15:54;4.68;;;1.52;;
77513;SDS011;66626;48.872;9.084;2023-08-06T03:20:46;5.00;;;2.00;;
77513;SDS011;66626;48.872;9.084;2023-08-06T03:23:11;5.85;;;2.40;;
77513;SDS011;66626;48.872;9.084;2023-08-06T03:25:36;4.78;;;1.80;;
77513;SDS011;66626;48.872;9.084;2023-08-06T03:28:02;4.97;;;1.92;;
77513;SDS011;66626;48.872;9.084;2023-08-06T03:30:27;4.35;;;1.95;;
77513;SDS011;66626;48.872;9.084;2023-08-06T03:32:52;5.20;;;2.35;;
77513;SDS011;66626;48.872;9.084;2023-08-06T03:35:18;6.20;;;2.00;;
77513;SDS011;66626;48.872;9.084;2023-08-06T03:37:43;5.05;;;1.50;;
77513;SDS011;66626;48.872;9.084;2023-08-06T03:40:09;4.80;;;1.98;;
77513;SDS011;66626;48.872;9.084;2023-08-06T03:42:35;8.00;;;2.33;;
77513;SDS011;66626;48.872;9.084;2023-08-06T03:45:00;6.53;;;2.25;;
77513;SDS011;66626;48.872;9.084;2023-08-06T03:47:25;5.03;;;1.80;;
77513;SDS011;66626;48.872;9.084;2023-08-06T03:49:50;6.80;;;2.08;;
77513;SDS011;66626;48.872;9.084;2023-08-06T03:52:16;4.53;;;1.67;;
77513;SDS011;66626;48.872;9.084;2023-08-06T03:54:41;5.10;;;2.25;;
77513;SDS011;66626;48.872;9.084;2023-08-06T03:57:08;4.18;;;1.90;;
77513;SDS011;66626;48.872;9.084;2023-08-06T03:59:33;3.88;;;1.50;;
77513;SDS011;66626;48.872;9.084;2023-08-06T04:01:59;6.93;;;2.20;;
77513;SDS011;66626;48.872;9.084;2023-08-06T04:04:24;6.20;;;2.90;;
77513;SDS011;66626;48.872;9.084;2023-08-06T04:06:49;6.13;;;2.33;;
77513;SDS011;66626;48.872;9.084;2023-08-06T04:09:15;8.88;;;2.30;;
77513;SDS011;66626;48.872;9.084;2023-08-06T04:11:40;6.25;;;1.95;;
77513;SDS011;66626;48.872;9.084;2023-08-06T04:14:05;4.95;;;1.70;;
77513;SDS011;66626;48.872;9.084;2023-08-06T04:16:30;5.53;;;2.30;;
77513;SDS011;66626;48.872;9.084;2023-08-06T04:18:56;5.32;;;2.47;;
77513;SDS011;66626;48.872;9.084;2023-08-06T04:21:21;4.55;;;1.65;;
77513;SDS011;66626;48.872;9.084;2023-08-06T04:23:46;4.25;;;1.70;;
77513;SDS011;66626;48.872;9.084;2023-08-06T04:26:12;5.13;;;1.67;;
77513;SDS011;66626;48.872;9.084;2023-08-06T04:28:37;6.45;;;2.10;;
77513;SDS011;66626;48.872;9.084;2023-08-06T04:31:02;5.20;;;1.83;;
77513;SDS011;66626;48.872;9.084;2023-08-06T04:33:28;7.50;;;2.90;;
77513;SDS011;66626;48.872;9.084;2023-08-06T04:35:54;8.07;;;2.13;;
77513;SDS011;66626;48.872;9.084;2023-08-06T04:38:20;5.88;;;1.80;;
77513;SDS011;66626;48.872;9.084;2023-08-06T04:40:45;3.55;;;1.45;;
77513;SDS011;66626;48.872;9.084;2023-08-06T04:43:11;4.25;;;1.48;;
77513;SDS011;66626;48.872;9.084;2023-08-06T04:45:36;3.55;;;1.27;;
77513;SDS011;66626;48.872;9.084;2023-08-06T04:48:01;3.47;;;1.50;;
77513;SDS011;66626;48.872;9.084;2023-08-06T04:50:27;7.88;;;1.70;;
77513;SDS011;66626;48.872;9.084;2023-08-06T04:52:52;4.93;;;1.77;;
77513;SDS011;66626;48.872;9.084;2023-08-06T04:55:17;7.68;;;1.90;;
77513;SDS011;66626;48.872;9.084;2023-08-06T04:57:43;3.80;;;1.20;;
77513;SDS011;66626;48.872;9.084;2023-08-06T05:00:08;4.10;;;1.60;;
77513;SDS011;66626;48.872;9.084;2023-08-06T05:02:33;6.15;;;2.10;;
77513;SDS011;66626;48.872;9.084;2023-08-06T05:04:59;6.13;;;1.88;;
77513;SDS011;66626;48.872;9.084;2023-08-06T05:07:24;3.83;;;1.50;;
77513;SDS011;66626;48.872;9.084;2023-08-06T05:09:50;4.00;;;1.30;;
77513;SDS011;66626;48.872;9.084;2023-08-06T05:12:15;3.22;;;1.23;;
77513;SDS011;66626;48.872;9.084;2023-08-06T05:14:40;3.60;;;1.42;;
77513;SDS011;66626;48.872;9.084;2023-08-06T05:17:06;4.47;;;1.52;;
77513;SDS011;66626;48.872;9.084;2023-08-06T05:19:31;4.00;;;1.52;;
77513;SDS011;66626;48.872;9.084;2023-08-06T05:21:56;3.97;;;1.58;;
77513;SDS011;66626;48.872;9.084;2023-08-06T05:24:22;6.55;;;1.48;;
77513;SDS011;66626;48.872;9.084;2023-08-06T05:26:47;3.83;;;1.33;;
77513;SDS011;66626;48.872;9.084;2023-08-06T05:29:12;3.33;;;1.30;;
77513;SDS011;66626;48.872;9.084;2023-08-06T05:31:38;3.22;;;1.20;;
77513;SDS011;66626;48.872;9.084;2023-08-06T05:34:03;4.20;;;1.30;;
77513;SDS011;66626;48.872;9.084;2023-08-06T05:36:28;4.45;;;1.73;;
77513;SDS011;66626;48.872;9.084;2023-08-06T05:38:54;6.53;;;1.50;;
77513;SDS011;66626;48.872;9.084;2023-08-06T05:41:19;6.57;;;1.80;;
77513;SDS011;66626;48.872;9.084;2023-08-06T05:43:44;3.95;;;1.50;;
77513;SDS011;66626;48.872;9.084;2023-08-06T05:46:10;4.50;;;1.70;;
77513;SDS011;66626;48.872;9.084;2023-08-06T05:48:35;3.40;;;1.13;;
77513;SDS011;66626;48.872;9.084;2023-08-06T05:51:01;2.40;;;0.77;;
77513;SDS011;66626;48.872;9.084;2023-08-06T05:53:26;2.95;;;1.00;;
77513;SDS011;66626;48.872;9.084;2023-08-06T05:55:51;2.28;;;0.88;;
77513;SDS011;66626;48.872;9.084;2023-08-06T05:58:16;2.15;;;0.90;;
77513;SDS011;66626;48.872;9.084;2023-08-06T06:00:42;4.65;;;1.00;;
77513;SDS011;66626;48.872;9.084;2023-08-06T06:03:08;6.05;;;2.00;;
77513;SDS011;66626;48.872;9.084;2023-08-06T06:05:33;3.30;;;1.20;;
77513;SDS011;66626;48.872;9.084;2023-08-06T06:07:58;3.65;;;1.02;;
77513;SDS011;66626;48.872;9.084;2023-08-06T06:10:24;3.13;;;1.27;;
77513;SDS011;66626;48.872;9.084;2023-08-06T06:12:49;3.85;;;1.50;;
77513;SDS011;66626;48.872;9.084;2023-08-06T06:15:14;3.60;;;0.70;;
77513;SDS011;66626;48.872;9.084;2023-08-06T06:17:40;3.00;;;1.05;;
77513;SDS011;66626;48.872;9.084;2023-08-06T06:20:05;1.77;;;0.70;;
77513;SDS011;66626;48.872;9.084;2023-08-06T06:22:31;2.28;;;0.77;;
77513;SDS011;66626;48.872;9.084;2023-08-06T06:24:56;1.85;;;0.55;;
77513;SDS011;66626;48.872;9.084;2023-08-06T06:27:21;2.47;;;0.98;;
77513;SDS011;66626;48.872;9.084;2023-08-06T06:29:47;1.63;;;0.65;;
77513;SDS011;66626;48.872;9.084;2023-08-06T06:32:12;2.38;;;0.75;;
77513;SDS011;66626;48.872;9.084;2023-08-06T06:34:37;2.70;;;0.47;;
77513;SDS011;66626;48.872;9.084;2023-08-06T06:37:03;1.40;;;0.52;;
77513;SDS011;66626;48.872;9.084;2023-08-06T06:39:28;1.80;;;0.70;;
77513;SDS011;66626;48.872;9.084;2023-08-06T06:41:54;6.53;;;1.30;;
77513;SDS011;66626;48.872;9.084;2023-08-06T06:44:19;2.20;;;0.63;;
77513;SDS011;66626;48.872;9.084;2023-08-06T06:46:45;2.75;;;0.93;;
77513;SDS011;66626;48.872;9.084;2023-08-06T06:49:11;3.13;;;1.00;;
77513;SDS011;66626;48.872;9.084;2023-08-06T06:51:36;3.65;;;0.80;;
77513;SDS011;66626;48.872;9.084;2023-08-06T06:54:01;2.17;;;0.57;;
77513;SDS011;66626;48.872;9.084;2023-08-06T06:56:27;0.88;;;0.35;;
77513;SDS011;66626;48.872;9.084;2023-08-06T06:58:52;2.00;;;0.75;;
77513;SDS011;66626;48.872;9.084;2023-08-06T07:01:17;2.40;;;0.70;;
77513;SDS011;66626;48.872;9.084;2023-08-06T07:03:43;1.48;;;0.50;;
77513;SDS011;66626;48.872;9.084;2023-08-06T07:06:08;2.35;;;0.75;;
77513;SDS011;66626;48.872;9.084;2023-08-06T07:08:33;1.17;;;0.40;;
77513;SDS011;66626;48.872;9.084;2023-08-06T07:11:02;1.23;;;0.28;;
77513;SDS011;66626;48.872;9.084;2023-08-06T07:13:28;0.98;;;0.35;;
77513;SDS011;66626;48.872;9.084;2023-08-06T07:15:54;0.55;;;0.30;;
77513;SDS011;66626;48.872;9.084;2023-08-06T07:18:20;2.42;;;0.70;;
77513;SDS011;66626;48.872;9.084;2023-08-06T07:20:49;1.55;;;0.20;;
77513;SDS011;66626;48.872;9.084;2023-08-06T07:23:15;2.45;;;0.63;;
77513;SDS011;66626;48.872;9.084;2023-08-06T07:25:40;2.30;;;0.45;;
77513;SDS011;66626;48.872;9.084;2023-08-06T07:28:05;2.05;;;0.20;;
77513;SDS011;66626;48.872;9.084;2023-08-06T07:30:31;0.32;;;0.17;;
77513;SDS011;66626;48.872;9.084;2023-08-06T07:32:56;1.38;;;0.68;;
77513;SDS011;66626;48.872;9.084;2023-08-06T07:35:21;3.40;;;1.10;;
77513;SDS011;66626;48.872;9.084;2023-08-06T07:37:47;1.63;;;0.47;;
77513;SDS011;66626;48.872;9.084;2023-08-06T07:40:12;2.13;;;0.68;;
77513;SDS011;66626;48.872;9.084;2023-08-06T07:42:38;0.73;;;0.40;;
77513;SDS011;66626;48.872;9.084;2023-08-06T07:45:04;1.95;;;0.77;;
77513;SDS011;66626;48.872;9.084;2023-08-06T07:47:29;3.47;;;0.52;;
77513;SDS011;66626;48.872;9.084;2023-08-06T07:49:55;3.78;;;1.38;;
77513;SDS011;66626;48.872;9.084;2023-08-06T07:52:20;0.63;;;0.20;;
77513;SDS011;66626;48.872;9.084;2023-08-06T07:54:45;1.15;;;0.43;;
77513;SDS011;66626;48.872;9.084;2023-08-06T07:57:11;1.98;;;0.63;;
77513;SDS011;66626;48.872;9.084;2023-08-06T07:59:36;2.00;;;0.60;;
77513;SDS011;66626;48.872;9.084;2023-08-06T08:02:01;2.22;;;0.60;;
77513;SDS011;66626;48.872;9.084;2023-08-06T08:04:29;0.80;;;0.20;;
77513;SDS011;66626;48.872;9.084;2023-08-06T08:06:54;0.93;;;0.47;;
77513;SDS011;66626;48.872;9.084;2023-08-06T08:09:20;0.98;;;0.43;;
77513;SDS011;66626;48.872;9.084;2023-08-06T08:11:45;1.70;;;0.65;;
77513;SDS011;66626;48.872;9.084;2023-08-06T08:14:10;1.45;;;0.30;;
77513;SDS011;66626;48.872;9.084;2023-08-06T08:16:36;0.10;;;0.10;;
77513;SDS011;66626;48.872;9.084;2023-08-06T08:19:01;0.38;;;0.30;;
77513;SDS011;66626;48.872;9.084;2023-08-06T08:21:28;1.20;;;0.55;;
77513;SDS011;66626;48.872;9.084;2023-08-06T08:23:54;1.15;;;0.43;;
77513;SDS011;66626;48.872;9.084;2023-08-06T08:26:19;1.05;;;0.40;;
77513;SDS011;66626;48.872;9.084;2023-08-06T08:28:44;0.90;;;0.20;;
77513;SDS011;66626;48.872;9.084;2023-08-06T08:31:10;0.45;;;0.20;;
77513;SDS011;66626;48.872;9.084;2023-08-06T08:33:36;0.22;;;0.20;;
77513;SDS011;66626;48.872;9.084;2023-08-06T08:36:02;0.93;;;0.20;;
77513;SDS011;66626;48.872;9.084;2023-08-06T08:38:27;5.03;;;0.75;;
77513;SDS011;66626;48.872;9.084;2023-08-06T08:40:53;2.28;;;0.88;;
77513;SDS011;66626;48.872;9.084;2023-08-06T08:43:22;5.05;;;1.95;;
77513;SDS011;66626;48.872;9.084;2023-08-06T08:45:49;1.13;;;0.50;;
77513;SDS011;66626;48.872;9.084;2023-08-06T08:48:15;2.22;;;0.70;;
77513;SDS011;66626;48.872;9.084;2023-08-06T08:50:42;0.75;;;0.20;;
77513;SDS011;66626;48.872;9.084;2023-08-06T08:53:09;0.70;;;0.30;;
77513;SDS011;66626;48.872;9.084;2023-08-06T08:55:37;2.97;;;0.25;;
77513;SDS011;66626;48.872;9.084;2023-08-06T08:58:03;0.90;;;0.30;;
77513;SDS011;66626;48.872;9.084;2023-08-06T09:00:28;1.35;;;0.22;;
77513;SDS011;66626;48.872;9.084;2023-08-06T09:02:54;0.63;;;0.38;;
77513;SDS011;66626;48.872;9.084;2023-08-06T09:05:20;0.28;;;0.10;;
77513;SDS011;66626;48.872;9.084;2023-08-06T09:07:46;0.85;;;0.43;;
77513;SDS011;66626;48.872;9.084;2023-08-06T09:10:13;4.95;;;2.15;;
77513;SDS011;66626;48.872;9.084;2023-08-06T09:12:42;4.55;;;1.65;;
77513;SDS011;66626;48.872;9.084;2023-08-06T09:15:08;0.13;;;0.10;;
77513;SDS011;66626;48.872;9.084;2023-08-06T09:17:33;0.25;;;0.10;;
77513;SDS011;66626;48.872;9.084;2023-08-06T09:19:59;0.35;;;0.30;;
77513;SDS011;66626;48.872;9.084;2023-08-06T09:22:24;1.10;;;0.28;;
77513;SDS011;66626;48.872;9.084;2023-08-06T09:24:49;0.20;;;0.15;;
77513;SDS011;66626;48.872;9.084;2023-08-06T09:27:15;0.45;;;0.10;;
77513;SDS011;66626;48.872;9.084;2023-08-06T09:29:41;0.30;;;0.25;;
77513;SDS011;66626;48.872;9.084;2023-08-06T09:34:35;3.10;;;1.40;;
77513;SDS011;66626;48.872;9.084;2023-08-06T09:37:03;6.47;;;1.30;;
77513;SDS011;66626;48.872;9.084;2023-08-06T09:39:30;0.98;;;0.30;;
77513;SDS011;66626;48.872;9.084;2023-08-06T09:41:59;5.68;;;2.20;;
77513;SDS011;66626;48.872;9.084;2023-08-06T09:44:26;0.13;;;0.13;;
77513;SDS011;66626;48.872;9.084;2023-08-06T09:46:53;0.28;;;0.10;;
77513;SDS011;66626;48.872;9.084;2023-08-06T09:49:20;0.30;;;0.10;;
77513;SDS011;66626;48.872;9.084;2023-08-06T09:54:17;0.55;;;0.35;;
77513;SDS011;66626;48.872;9.084;2023-08-06T09:56:44;1.20;;;0.30;;
77513;SDS011;66626;48.872;9.084;2023-08-06T09:59:09;1.23;;;0.40;;
77513;SDS011;66626;48.872;9.084;2023-08-06T10:01:36;0.80;;;0.22;;
77513;SDS011;66626;48.872;9.084;2023-08-06T10:04:05;1.52;;;0.22;;
77513;SDS011;66626;48.872;9.084;2023-08-06T10:06:36;1.08;;;0.40;;
77513;SDS011;66626;48.872;9.084;2023-08-06T10:09:05;0.00;;;0.00;;
77513;SDS011;66626;48.872;9.084;2023-08-06T10:11:31;0.65;;;0.25;;
77513;SDS011;66626;48.872;9.084;2023-08-06T10:14:11;0.30;;;0.20;;
77513;SDS011;66626;48.872;9.084;2023-08-06T10:16:38;0.98;;;0.55;;
77513;SDS011;66626;48.872;9.084;2023-08-06T10:19:05;0.32;;;0.10;;
77513;SDS011;66626;48.872;9.084;2023-08-06T10:21:32;0.22;;;0.10;;
77513;SDS011;66626;48.872;9.084;2023-08-06T10:23:57;0.10;;;0.10;;
77513;SDS011;66626;48.872;9.084;2023-08-06T10:26:29;0.77;;;0.25;;
77513;SDS011;66626;48.872;9.084;2023-08-06T10:28:54;4.30;;;1.73;;
77513;SDS011;66626;48.872;9.084;2023-08-06T10:31:28;0.52;;;0.20;;
77513;SDS011;66626;48.872;9.084;2023-08-06T10:34:18;0.35;;;0.10;;
77513;SDS011;66626;48.872;9.084;2023-08-06T10:36:44;0.38;;;0.20;;
77513;SDS011;66626;48.872;9.084;2023-08-06T10:39:11;0.57;;;0.25;;
77513;SDS011;66626;48.872;9.084;2023-08-06T10:41:38;0.10;;;0.10;;
77513;SDS011;66626;48.872;9.084;2023-08-06T10:44:07;0.10;;;0.10;;
77513;SDS011;66626;48.872;9.084;2023-08-06T10:46:33;0.15;;;0.10;;
77513;SDS011;66626;48.872;9.084;2023-08-06T10:48:59;0.22;;;0.15;;
77513;SDS011;66626;48.872;9.084;2023-08-06T10:51:24;1.05;;;0.40;;
77513;SDS011;66626;48.872;9.084;2023-08-06T10:53:50;0.45;;;0.20;;
77513;SDS011;66626;48.872;9.084;2023-08-06T10:56:19;1.00;;;0.32;;
77513;SDS011;66626;48.872;9.084;2023-08-06T10:58:48;0.73;;;0.50;;
77513;SDS011;66626;48.872;9.084;2023-08-06T11:01:15;0.80;;;0.50;;
77513;SDS011;66626;48.872;9.084;2023-08-06T11:03:44;0.90;;;0.35;;
77513;SDS011;66626;48.872;9.084;2023-08-06T11:06:16;2.17;;;0.80;;
77513;SDS011;66626;48.872;9.084;2023-08-06T11:08:46;1.85;;;0.60;;
77513;SDS011;66626;48.872;9.084;2023-08-06T11:11:13;2.05;;;0.85;;
77513;SDS011;66626;48.872;9.084;2023-08-06T11:13:40;2.38;;;0.82;;
77513;SDS011;66626;48.872;9.084;2023-08-06T11:16:06;1.63;;;0.80;;
77513;SDS011;66626;48.872;9.084;2023-08-06T11:18:34;1.50;;;0.60;;
77513;SDS011;66626;48.872;9.084;2023-08-06T11:21:00;1.50;;;0.45;;
77513;SDS011;66626;48.872;9.084;2023-08-06T11:23:26;1.38;;;0.60;;
77513;SDS011;66626;48.872;9.084;2023-08-06T11:29:10;1.55;;;0.60;;
77513;SDS011;66626;48.872;9.084;2023-08-06T11:31:47;1.50;;;0.60;;
77513;SDS011;66626;48.872;9.084;2023-08-06T11:34:33;3.45;;;1.40;;
77513;SDS011;66626;48.872;9.084;2023-08-06T11:36:59;1.98;;;0.57;;
77513;SDS011;66626;48.872;9.084;2023-08-06T11:39:28;3.78;;;1.15;;
77513;SDS011;66626;48.872;9.084;2023-08-06T11:42:02;1.90;;;0.90;;
77513;SDS011;66626;48.872;9.084;2023-08-06T11:44:53;1.85;;;0.95;;
77513;SDS011;66626;48.872;9.084;2023-08-06T11:51:00;2.83;;;1.05;;
77513;SDS011;66626;48.872;9.084;2023-08-06T11:57:08;3.20;;;1.20;;
77513;SDS011;66626;48.872;9.084;2023-08-06T11:59:39;4.35;;;1.30;;
77513;SDS011;66626;48.872;9.084;2023-08-06T12:02:08;3.55;;;1.33;;
77513;SDS011;66626;48.872;9.084;2023-08-06T12:07:28;4.28;;;1.30;;
77513;SDS011;66626;48.872;9.084;2023-08-06T12:09:54;3.47;;;1.05;;
77513;SDS011;66626;48.872;9.084;2023-08-06T12:12:21;2.90;;;1.00;;
77513;SDS011;66626;48.872;9.084;2023-08-06T12:14:47;5.07;;;1.40;;
77513;SDS011;66626;48.872;9.084;2023-08-06T12:17:12;3.13;;;1.17;;
77513;SDS011;66626;48.872;9.084;2023-08-06T12:19:38;3.15;;;1.38;;
77513;SDS011;66626;48.872;9.084;2023-08-06T12:22:03;4.47;;;1.33;;
77513;SDS011;66626;48.872;9.084;2023-08-06T12:24:29;4.50;;;1.40;;
77513;SDS011;66626;48.872;9.084;2023-08-06T12:26:59;2.85;;;1.23;;
77513;SDS011;66626;48.872;9.084;2023-08-06T12:29:26;6.45;;;2.30;;
77513;SDS011;66626;48.872;9.084;2023-08-06T12:31:53;3.25;;;1.70;;
77513;SDS011;66626;48.872;9.084;2023-08-06T12:34:18;5.68;;;1.75;;
77513;SDS011;66626;48.872;9.084;2023-08-06T12:36:43;10.27;;;2.20;;
77513;SDS011;66626;48.872;9.084;2023-08-06T12:39:09;6.13;;;2.33;;
77513;SDS011;66626;48.872;9.084;2023-08-06T12:41:35;4.78;;;1.92;;
77513;SDS011;66626;48.872;9.084;2023-08-06T12:44:00;6.28;;;1.88;;
77513;SDS011;66626;48.872;9.084;2023-08-06T12:46:25;6.00;;;2.08;;
77513;SDS011;66626;48.872;9.084;2023-08-06T12:48:51;4.93;;;1.50;;
77513;SDS011;66626;48.872;9.084;2023-08-06T12:51:16;5.85;;;2.10;;
77513;SDS011;66626;48.872;9.084;2023-08-06T12:53:42;4.88;;;1.65;;
77513;SDS011;66626;48.872;9.084;2023-08-06T12:56:09;5.22;;;1.77;;
77513;SDS011;66626;48.872;9.084;2023-08-06T12:58:45;5.28;;;1.40;;
77513;SDS011;66626;48.872;9.084;2023-08-06T13:01:10;3.90;;;1.33;;
77513;SDS011;66626;48.872;9.084;2023-08-06T13:03:36;3.78;;;1.33;;
77513;SDS011;66626;48.872;9.084;2023-08-06T13:06:01;4.95;;;1.88;;
77513;SDS011;66626;48.872;9.084;2023-08-06T13:08:27;6.78;;;2.28;;
77513;SDS011;66626;48.872;9.084;2023-08-06T13:10:52;10.18;;;1.80;;
77513;SDS011;66626;48.872;9.084;2023-08-06T13:13:18;3.45;;;1.48;;
77513;SDS011;66626;48.872;9.084;2023-08-06T13:15:43;4.00;;;1.50;;
77513;SDS011;66626;48.872;9.084;2023-08-06T13:18:08;3.60;;;1.30;;
77513;SDS011;66626;48.872;9.084;2023-08-06T13:20:34;2.53;;;0.98;;
77513;SDS011;66626;48.872;9.084;2023-08-06T13:22:59;7.00;;;1.65;;
77513;SDS011;66626;48.872;9.084;2023-08-06T13:25:26;5.13;;;1.70;;
77513;SDS011;66626;48.872;9.084;2023-08-06T13:27:53;3.05;;;1.20;;
77513;SDS011;66626;48.872;9.084;2023-08-06T13:30:19;2.75;;;0.95;;
77513;SDS011;66626;48.872;9.084;2023-08-06T13:32:44;2.80;;;0.95;;
77513;SDS011;66626;48.872;9.084;2023-08-06T13:35:10;3.50;;;1.10;;
77513;SDS011;66626;48.872;9.084;2023-08-06T13:37:35;2.13;;;0.93;;
77513;SDS011;66626;48.872;9.084;2023-08-06T13:40:00;1.92;;;0.75;;
77513;SDS011;66626;48.872;9.084;2023-08-06T13:42:26;1.33;;;0.60;;
77513;SDS011;66626;48.872;9.084;2023-08-06T13:44:51;1.50;;;0.60;;
77513;SDS011;66626;48.872;9.084;2023-08-06T13:47:17;1.92;;;0.65;;
77513;SDS011;66626;48.872;9.084;2023-08-06T13:49:42;1.90;;;0.70;;
77513;SDS011;66626;48.872;9.084;2023-08-06T13:52:07;1.58;;;0.60;;
77513;SDS011;66626;48.872;9.084;2023-08-06T13:54:33;2.45;;;0.60;;
77513;SDS011;66626;48.872;9.084;2023-08-06T13:56:58;2.05;;;1.00;;
77513;SDS011;66626;48.872;9.084;2023-08-06T13:59:23;1.35;;;0.90;;
77513;SDS011;66626;48.872;9.084;2023-08-06T14:01:49;2.97;;;0.80;;
77513;SDS011;66626;48.872;9.084;2023-08-06T14:04:15;2.25;;;0.70;;
77513;SDS011;66626;48.872;9.084;2023-08-06T14:06:40;1.75;;;0.60;;
77513;SDS011;66626;48.872;9.084;2023-08-06T14:09:06;1.55;;;0.38;;
77513;SDS011;66626;48.872;9.084;2023-08-06T14:11:32;2.95;;;0.95;;
77513;SDS011;66626;48.872;9.084;2023-08-06T14:13:58;2.17;;;0.85;;
77513;SDS011;66626;48.872;9.084;2023-08-06T14:16:23;2.17;;;0.80;;
77513;SDS011;66626;48.872;9.084;2023-08-06T14:18:48;2.92;;;0.98;;
77513;SDS011;66626;48.872;9.084;2023-08-06T14:21:14;2.38;;;1.00;;
77513;SDS011;66626;48.872;9.084;2023-08-06T14:23:39;3.05;;;1.27;;
77513;SDS011;66626;48.872;9.084;2023-08-06T14:26:06;2.88;;;0.90;;
77513;SDS011;66626;48.872;9.084;2023-08-06T14:28:32;2.88;;;1.00;;
77513;SDS011;66626;48.872;9.084;2023-08-06T14:30:57;1.45;;;0.70;;
77513;SDS011;66626;48.872;9.084;2023-08-06T14:33:22;2.30;;;0.77;;
77513;SDS011;66626;48.872;9.084;2023-08-06T14:35:48;2.47;;;0.90;;
77513;SDS011;66626;48.872;9.084;2023-08-06T14:38:13;2.22;;;0.90;;
77513;SDS011;66626;48.872;9.084;2023-08-06T14:40:38;2.97;;;1.05;;
77513;SDS011;66626;48.872;9.084;2023-08-06T14:43:05;1.85;;;0.75;;
77513;SDS011;66626;48.872;9.084;2023-08-06T14:45:31;4.28;;;1.00;;
77513;SDS011;66626;48.872;9.084;2023-08-06T14:47:56;2.90;;;0.90;;
77513;SDS011;66626;48.872;9.084;2023-08-06T14:50:22;6.20;;;1.13;;
77513;SDS011;66626;48.872;9.084;2023-08-06T14:52:47;2.05;;;0.80;;
77513;SDS011;66626;48.872;9.084;2023-08-06T14:55:17;2.80;;;0.85;;
77513;SDS011;66626;48.872;9.084;2023-08-06T14:57:47;1.55;;;0.60;;
77513;SDS011;66626;48.872;9.084;2023-08-06T15:00:13;2.10;;;0.82;;
77513;SDS011;66626;48.872;9.084;2023-08-06T15:02:38;2.35;;;0.90;;
77513;SDS011;66626;48.872;9.084;2023-08-06T15:05:03;1.67;;;0.80;;
77513;SDS011;66626;48.872;9.084;2023-08-06T15:07:29;1.55;;;0.60;;
77513;SDS011;66626;48.872;9.084;2023-08-06T15:09:56;1.77;;;0.77;;